sensor_id;sensor_type;location;lat;lon;timestamp;temperature;humidity
324;DHT22;149;51.094;17.002;2023-09-18T00:01:03;16.90;99.90
324;DHT22;149;51.094;17.002;2023-09-18T00:03:31;16.90;99.90
324;DHT22;149;51.094;17.002;2023-09-18T00:05:58;16.90;99.90
324;DHT22;149;51.094;17.002;2023-09-18T00:08:25;16.90;99.90
324;DHT22;149;51.094;17.002;2023-09-18T00:10:53;16.90;99.90
324;DHT22;149;51.094;17.002;2023-09-18T00:13:23;16.90;99.90
324;DHT22;149;51.094;17.002;2023-09-18T00:15:55;16.70;99.90
324;DHT22;149;51.094;17.002;2023-09-18T00:18:24;16.80;99.90
324;DHT22;149;51.094;17.002;2023-09-18T00:20:52;16.80;99.90
324;DHT22;149;51.094;17.002;2023-09-18T00:23:19;16.80;99.90
324;DHT22;149;51.094;17.002;2023-09-18T00:25:46;16.70;99.90
324;DHT22;149;51.094;17.002;2023-09-18T00:28:13;16.70;99.90
324;DHT22;149;51.094;17.002;2023-09-18T00:30:51;16.80;99.90
324;DHT22;149;51.094;17.002;2023-09-18T00:33:20;17.00;99.90
324;DHT22;149;51.094;17.002;2023-09-18T00:35:49;16.80;99.90
324;DHT22;149;51.094;17.002;2023-09-18T00:38:16;16.80;99.90
324;DHT22;149;51.094;17.002;2023-09-18T00:40:43;16.70;99.90
324;DHT22;149;51.094;17.002;2023-09-18T00:43:10;16.70;99.90
324;DHT22;149;51.094;17.002;2023-09-18T00:45:47;16.60;99.90
324;DHT22;149;51.094;17.002;2023-09-18T00:48:16;16.50;99.90
324;DHT22;149;51.094;17.002;2023-09-18T00:50:46;16.60;99.90
324;DHT22;149;51.094;17.002;2023-09-18T00:53:18;16.60;99.90
324;DHT22;149;51.094;17.002;2023-09-18T00:55:46;16.70;99.90
324;DHT22;149;51.094;17.002;2023-09-18T00:58:15;16.60;99.90
324;DHT22;149;51.094;17.002;2023-09-18T01:00:43;16.60;99.90
324;DHT22;149;51.094;17.002;2023-09-18T01:03:10;16.40;99.90
324;DHT22;149;51.094;17.002;2023-09-18T01:05:38;16.40;99.90
324;DHT22;149;51.094;17.002;2023-09-18T01:08:08;16.40;99.90
324;DHT22;149;51.094;17.002;2023-09-18T01:10:41;16.40;99.90
324;DHT22;149;51.094;17.002;2023-09-18T01:13:27;16.40;99.90
324;DHT22;149;51.094;17.002;2023-09-18T01:16:02;16.20;99.90
324;DHT22;149;51.094;17.002;2023-09-18T01:18:30;16.40;99.90
324;DHT22;149;51.094;17.002;2023-09-18T01:23:28;16.40;99.90
324;DHT22;149;51.094;17.002;2023-09-18T01:25:55;16.40;99.90
324;DHT22;149;51.094;17.002;2023-09-18T01:28:22;16.30;99.90
324;DHT22;149;51.094;17.002;2023-09-18T01:30:50;16.40;99.90
324;DHT22;149;51.094;17.002;2023-09-18T01:33:17;16.40;99.90
324;DHT22;149;51.094;17.002;2023-09-18T01:35:53;16.40;99.90
324;DHT22;149;51.094;17.002;2023-09-18T01:38:24;16.30;99.90
324;DHT22;149;51.094;17.002;2023-09-18T01:40:53;16.30;99.90
324;DHT22;149;51.094;17.002;2023-09-18T01:43:21;16.40;99.90
324;DHT22;149;51.094;17.002;2023-09-18T01:45:49;16.30;99.90
324;DHT22;149;51.094;17.002;2023-09-18T01:48:16;16.30;99.90
324;DHT22;149;51.094;17.002;2023-09-18T01:50:46;16.20;99.90
324;DHT22;149;51.094;17.002;2023-09-18T01:53:13;16.20;99.90
324;DHT22;149;51.094;17.002;2023-09-18T01:55:40;16.20;99.90
324;DHT22;149;51.094;17.002;2023-09-18T01:58:07;16.20;99.90
324;DHT22;149;51.094;17.002;2023-09-18T02:00:37;16.10;99.90
324;DHT22;149;51.094;17.002;2023-09-18T02:03:05;16.20;99.90
324;DHT22;149;51.094;17.002;2023-09-18T02:05:47;16.10;99.90
324;DHT22;149;51.094;17.002;2023-09-18T02:08:14;16.10;99.90
324;DHT22;149;51.094;17.002;2023-09-18T02:10:42;16.00;99.90
324;DHT22;149;51.094;17.002;2023-09-18T02:13:10;15.90;99.90
324;DHT22;149;51.094;17.002;2023-09-18T02:15:38;16.20;99.90
324;DHT22;149;51.094;17.002;2023-09-18T02:18:05;16.00;99.90
324;DHT22;149;51.094;17.002;2023-09-18T02:23:03;16.00;99.90
324;DHT22;149;51.094;17.002;2023-09-18T02:28:01;15.90;99.90
324;DHT22;149;51.094;17.002;2023-09-18T02:33:10;15.80;99.90
324;DHT22;149;51.094;17.002;2023-09-18T02:35:38;15.80;99.90
324;DHT22;149;51.094;17.002;2023-09-18T02:40:49;15.80;99.90
324;DHT22;149;51.094;17.002;2023-09-18T02:45:58;15.90;99.90
324;DHT22;149;51.094;17.002;2023-09-18T02:48:25;15.80;99.90
324;DHT22;149;51.094;17.002;2023-09-18T02:50:52;15.80;99.90
324;DHT22;149;51.094;17.002;2023-09-18T02:53:24;15.80;99.90
324;DHT22;149;51.094;17.002;2023-09-18T02:55:53;15.80;99.90
324;DHT22;149;51.094;17.002;2023-09-18T03:00:55;15.70;99.90
324;DHT22;149;51.094;17.002;2023-09-18T03:03:22;15.70;99.90
324;DHT22;149;51.094;17.002;2023-09-18T03:05:52;15.70;99.90
324;DHT22;149;51.094;17.002;2023-09-18T03:08:22;15.70;99.90
324;DHT22;149;51.094;17.002;2023-09-18T03:13:37;15.60;99.90
324;DHT22;149;51.094;17.002;2023-09-18T03:16:10;15.60;99.90
324;DHT22;149;51.094;17.002;2023-09-18T03:18:38;15.60;99.90
324;DHT22;149;51.094;17.002;2023-09-18T03:21:05;15.60;99.90
324;DHT22;149;51.094;17.002;2023-09-18T03:23:32;15.50;99.90
324;DHT22;149;51.094;17.002;2023-09-18T03:26:00;15.70;99.90
324;DHT22;149;51.094;17.002;2023-09-18T03:28:27;15.50;99.90
324;DHT22;149;51.094;17.002;2023-09-18T03:31:00;15.50;99.90
324;DHT22;149;51.094;17.002;2023-09-18T03:33:27;15.50;99.90
324;DHT22;149;51.094;17.002;2023-09-18T03:35:55;15.50;99.90
324;DHT22;149;51.094;17.002;2023-09-18T03:38:25;15.50;99.90
324;DHT22;149;51.094;17.002;2023-09-18T03:43:29;15.50;99.90
324;DHT22;149;51.094;17.002;2023-09-18T03:51:35;15.50;99.90
324;DHT22;149;51.094;17.002;2023-09-18T03:54:02;15.50;99.90
324;DHT22;149;51.094;17.002;2023-09-18T03:56:30;15.40;99.90
324;DHT22;149;51.094;17.002;2023-09-18T03:58:58;15.40;99.90
324;DHT22;149;51.094;17.002;2023-09-18T04:01:30;15.40;99.90
324;DHT22;149;51.094;17.002;2023-09-18T04:03:58;15.40;99.90
324;DHT22;149;51.094;17.002;2023-09-18T04:06:25;15.30;99.90
324;DHT22;149;51.094;17.002;2023-09-18T04:08:52;15.30;99.90
324;DHT22;149;51.094;17.002;2023-09-18T04:11:19;15.30;99.90
324;DHT22;149;51.094;17.002;2023-09-18T04:13:53;15.30;99.90
324;DHT22;149;51.094;17.002;2023-09-18T04:16:20;15.50;99.90
324;DHT22;149;51.094;17.002;2023-09-18T04:18:47;15.30;99.90
324;DHT22;149;51.094;17.002;2023-09-18T04:21:18;15.20;99.90
324;DHT22;149;51.094;17.002;2023-09-18T04:24:01;15.20;99.90
324;DHT22;149;51.094;17.002;2023-09-18T04:26:29;15.30;99.90
324;DHT22;149;51.094;17.002;2023-09-18T04:28:58;15.30;99.90
324;DHT22;149;51.094;17.002;2023-09-18T04:34:10;15.20;99.90
324;DHT22;149;51.094;17.002;2023-09-18T04:36:37;15.20;99.90
324;DHT22;149;51.094;17.002;2023-09-18T04:39:05;15.20;99.90
324;DHT22;149;51.094;17.002;2023-09-18T04:41:33;15.20;99.90
324;DHT22;149;51.094;17.002;2023-09-18T04:46:34;15.20;99.90
324;DHT22;149;51.094;17.002;2023-09-18T04:49:02;15.20;99.90
324;DHT22;149;51.094;17.002;2023-09-18T04:51:33;15.20;99.90
324;DHT22;149;51.094;17.002;2023-09-18T04:56:55;15.20;99.90
324;DHT22;149;51.094;17.002;2023-09-18T04:59:22;15.30;99.90
324;DHT22;149;51.094;17.002;2023-09-18T05:01:49;15.30;99.90
324;DHT22;149;51.094;17.002;2023-09-18T05:04:17;15.30;99.90
324;DHT22;149;51.094;17.002;2023-09-18T05:06:44;15.50;99.90
324;DHT22;149;51.094;17.002;2023-09-18T05:11:47;15.60;99.90
324;DHT22;149;51.094;17.002;2023-09-18T05:14:15;15.70;99.90
324;DHT22;149;51.094;17.002;2023-09-18T05:19:24;15.80;99.90
324;DHT22;149;51.094;17.002;2023-09-18T05:21:51;15.90;99.90
324;DHT22;149;51.094;17.002;2023-09-18T05:24:20;16.00;99.90
324;DHT22;149;51.094;17.002;2023-09-18T05:29:24;16.10;99.90
324;DHT22;149;51.094;17.002;2023-09-18T05:31:54;16.00;99.90
324;DHT22;149;51.094;17.002;2023-09-18T05:34:22;16.40;99.90
324;DHT22;149;51.094;17.002;2023-09-18T05:36:49;16.20;99.90
324;DHT22;149;51.094;17.002;2023-09-18T05:39:17;16.50;99.90
324;DHT22;149;51.094;17.002;2023-09-18T05:41:44;16.70;99.90
324;DHT22;149;51.094;17.002;2023-09-18T05:44:11;16.90;99.90
324;DHT22;149;51.094;17.002;2023-09-18T05:46:38;17.10;99.90
324;DHT22;149;51.094;17.002;2023-09-18T05:51:41;17.30;99.90
324;DHT22;149;51.094;17.002;2023-09-18T05:56:44;17.40;99.90
324;DHT22;149;51.094;17.002;2023-09-18T06:01:46;17.50;99.90
324;DHT22;149;51.094;17.002;2023-09-18T06:04:15;17.60;99.90
324;DHT22;149;51.094;17.002;2023-09-18T06:09:20;17.70;99.90
324;DHT22;149;51.094;17.002;2023-09-18T06:17:05;18.10;99.90
324;DHT22;149;51.094;17.002;2023-09-18T06:19:33;18.40;99.90
324;DHT22;149;51.094;17.002;2023-09-18T06:22:00;18.50;99.90
324;DHT22;149;51.094;17.002;2023-09-18T06:24:27;18.80;99.90
324;DHT22;149;51.094;17.002;2023-09-18T06:26:55;18.90;99.90
324;DHT22;149;51.094;17.002;2023-09-18T06:29:21;19.10;99.90
324;DHT22;149;51.094;17.002;2023-09-18T06:31:49;19.20;99.90
324;DHT22;149;51.094;17.002;2023-09-18T06:36:52;19.70;99.90
324;DHT22;149;51.094;17.002;2023-09-18T06:39:19;19.70;99.90
324;DHT22;149;51.094;17.002;2023-09-18T06:41:48;20.10;99.90
324;DHT22;149;51.094;17.002;2023-09-18T06:46:51;20.40;99.90
324;DHT22;149;51.094;17.002;2023-09-18T06:49:19;21.30;99.90
324;DHT22;149;51.094;17.002;2023-09-18T06:51:46;21.60;99.90
324;DHT22;149;51.094;17.002;2023-09-18T06:54:13;21.70;99.90
324;DHT22;149;51.094;17.002;2023-09-18T06:56:41;21.80;99.90
324;DHT22;149;51.094;17.002;2023-09-18T06:59:08;22.40;99.90
324;DHT22;149;51.094;17.002;2023-09-18T07:01:35;23.10;99.90
324;DHT22;149;51.094;17.002;2023-09-18T07:04:03;23.50;99.90
324;DHT22;149;51.094;17.002;2023-09-18T07:06:31;24.00;99.90
324;DHT22;149;51.094;17.002;2023-09-18T07:08:59;23.50;99.90
324;DHT22;149;51.094;17.002;2023-09-18T07:11:26;23.90;99.90
324;DHT22;149;51.094;17.002;2023-09-18T07:13:55;24.80;99.90
324;DHT22;149;51.094;17.002;2023-09-18T07:16:22;24.20;99.90
324;DHT22;149;51.094;17.002;2023-09-18T07:18:49;24.20;99.90
324;DHT22;149;51.094;17.002;2023-09-18T07:21:23;24.20;99.90
324;DHT22;149;51.094;17.002;2023-09-18T07:23:50;25.10;99.90
324;DHT22;149;51.094;17.002;2023-09-18T07:26:18;25.50;99.90
324;DHT22;149;51.094;17.002;2023-09-18T07:28:45;25.70;99.90
324;DHT22;149;51.094;17.002;2023-09-18T07:33:59;24.90;99.90
324;DHT22;149;51.094;17.002;2023-09-18T07:36:27;26.00;99.90
324;DHT22;149;51.094;17.002;2023-09-18T07:38:54;25.10;99.90
324;DHT22;149;51.094;17.002;2023-09-18T07:41:23;25.20;99.90
324;DHT22;149;51.094;17.002;2023-09-18T07:43:51;25.50;99.90
324;DHT22;149;51.094;17.002;2023-09-18T07:46:18;25.90;99.90
324;DHT22;149;51.094;17.002;2023-09-18T07:48:46;26.00;99.90
324;DHT22;149;51.094;17.002;2023-09-18T07:51:13;27.00;99.90
324;DHT22;149;51.094;17.002;2023-09-18T07:53:43;27.20;99.90
324;DHT22;149;51.094;17.002;2023-09-18T07:56:10;27.10;99.90
324;DHT22;149;51.094;17.002;2023-09-18T07:58:38;27.50;99.90
324;DHT22;149;51.094;17.002;2023-09-18T08:03:40;27.30;99.90
324;DHT22;149;51.094;17.002;2023-09-18T08:06:08;26.40;99.90
324;DHT22;149;51.094;17.002;2023-09-18T08:08:43;27.10;99.90
324;DHT22;149;51.094;17.002;2023-09-18T08:11:11;27.30;99.90
324;DHT22;149;51.094;17.002;2023-09-18T08:13:38;27.10;99.90
324;DHT22;149;51.094;17.002;2023-09-18T08:16:06;27.10;99.90
324;DHT22;149;51.094;17.002;2023-09-18T08:18:34;26.90;99.90
324;DHT22;149;51.094;17.002;2023-09-18T08:21:01;26.60;99.90
324;DHT22;149;51.094;17.002;2023-09-18T08:23:28;26.40;99.90
324;DHT22;149;51.094;17.002;2023-09-18T08:25:56;26.50;99.90
324;DHT22;149;51.094;17.002;2023-09-18T08:31:06;27.30;99.90
324;DHT22;149;51.094;17.002;2023-09-18T08:33:33;26.50;99.90
324;DHT22;149;51.094;17.002;2023-09-18T08:36:01;26.60;99.90
324;DHT22;149;51.094;17.002;2023-09-18T08:38:31;26.70;99.90
324;DHT22;149;51.094;17.002;2023-09-18T08:40:58;26.50;99.90
324;DHT22;149;51.094;17.002;2023-09-18T08:46:01;26.70;99.90
324;DHT22;149;51.094;17.002;2023-09-18T08:48:30;27.20;99.90
324;DHT22;149;51.094;17.002;2023-09-18T08:51:04;27.20;99.90
324;DHT22;149;51.094;17.002;2023-09-18T08:53:35;27.10;99.90
324;DHT22;149;51.094;17.002;2023-09-18T08:58:44;27.70;99.90
324;DHT22;149;51.094;17.002;2023-09-18T09:01:18;28.10;99.90
324;DHT22;149;51.094;17.002;2023-09-18T09:03:46;27.70;99.90
324;DHT22;149;51.094;17.002;2023-09-18T09:08:59;28.00;99.90
324;DHT22;149;51.094;17.002;2023-09-18T09:11:26;28.50;99.90
324;DHT22;149;51.094;17.002;2023-09-18T09:14:12;27.70;99.90
324;DHT22;149;51.094;17.002;2023-09-18T09:16:48;27.40;99.90
324;DHT22;149;51.094;17.002;2023-09-18T09:21:59;28.00;99.90
324;DHT22;149;51.094;17.002;2023-09-18T09:27:03;28.00;99.90
324;DHT22;149;51.094;17.002;2023-09-18T09:29:32;27.90;99.90
324;DHT22;149;51.094;17.002;2023-09-18T09:32:18;27.50;99.90
324;DHT22;149;51.094;17.002;2023-09-18T09:34:46;27.40;99.90
324;DHT22;149;51.094;17.002;2023-09-18T09:39:50;27.50;99.90
324;DHT22;149;51.094;17.002;2023-09-18T09:42:19;27.70;99.90
324;DHT22;149;51.094;17.002;2023-09-18T09:45:02;27.80;99.90
324;DHT22;149;51.094;17.002;2023-09-18T09:50:10;27.60;99.90
324;DHT22;149;51.094;17.002;2023-09-18T09:55:27;27.40;99.90
324;DHT22;149;51.094;17.002;2023-09-18T09:57:58;27.70;99.90
324;DHT22;149;51.094;17.002;2023-09-18T10:00:32;27.80;99.90
324;DHT22;149;51.094;17.002;2023-09-18T10:03:04;27.90;99.90
324;DHT22;149;51.094;17.002;2023-09-18T10:05:34;27.60;99.90
324;DHT22;149;51.094;17.002;2023-09-18T10:08:07;27.40;99.90
324;DHT22;149;51.094;17.002;2023-09-18T10:22:01;28.00;99.90
324;DHT22;149;51.094;17.002;2023-09-18T10:24:37;27.80;99.90
324;DHT22;149;51.094;17.002;2023-09-18T10:27:05;27.60;99.90
324;DHT22;149;51.094;17.002;2023-09-18T10:29:34;27.80;99.90
324;DHT22;149;51.094;17.002;2023-09-18T10:32:05;28.10;99.90
324;DHT22;149;51.094;17.002;2023-09-18T10:34:37;28.00;99.10
324;DHT22;149;51.094;17.002;2023-09-18T10:37:04;28.20;98.80
324;DHT22;149;51.094;17.002;2023-09-18T10:39:37;28.00;98.70
324;DHT22;149;51.094;17.002;2023-09-18T10:42:08;27.90;98.30
324;DHT22;149;51.094;17.002;2023-09-18T10:44:36;27.60;98.90
324;DHT22;149;51.094;17.002;2023-09-18T10:47:09;27.50;98.20
324;DHT22;149;51.094;17.002;2023-09-18T10:49:37;27.80;98.80
324;DHT22;149;51.094;17.002;2023-09-18T10:52:04;28.00;98.70
324;DHT22;149;51.094;17.002;2023-09-18T10:54:31;27.90;98.30
324;DHT22;149;51.094;17.002;2023-09-18T10:57:01;27.70;97.80
324;DHT22;149;51.094;17.002;2023-09-18T10:59:30;28.00;98.50
324;DHT22;149;51.094;17.002;2023-09-18T11:02:05;28.00;98.20
324;DHT22;149;51.094;17.002;2023-09-18T11:04:38;28.10;97.80
324;DHT22;149;51.094;17.002;2023-09-18T11:07:08;28.00;97.40
324;DHT22;149;51.094;17.002;2023-09-18T11:12:17;28.00;97.80
324;DHT22;149;51.094;17.002;2023-09-18T11:22:32;28.30;97.60
324;DHT22;149;51.094;17.002;2023-09-18T11:27:54;28.00;96.90
324;DHT22;149;51.094;17.002;2023-09-18T11:30:27;28.00;97.00
324;DHT22;149;51.094;17.002;2023-09-18T11:32:57;27.90;97.00
324;DHT22;149;51.094;17.002;2023-09-18T11:35:26;28.00;96.90
324;DHT22;149;51.094;17.002;2023-09-18T11:38:07;28.10;96.90
324;DHT22;149;51.094;17.002;2023-09-18T11:40:38;28.30;96.80
324;DHT22;149;51.094;17.002;2023-09-18T11:43:25;28.20;96.30
324;DHT22;149;51.094;17.002;2023-09-18T11:45:54;28.10;96.20
324;DHT22;149;51.094;17.002;2023-09-18T11:48:23;28.20;96.70
324;DHT22;149;51.094;17.002;2023-09-18T11:50:58;28.20;95.50
324;DHT22;149;51.094;17.002;2023-09-18T11:53:27;28.20;94.80
324;DHT22;149;51.094;17.002;2023-09-18T11:58:30;28.50;95.40
324;DHT22;149;51.094;17.002;2023-09-18T12:01:03;28.50;94.70
324;DHT22;149;51.094;17.002;2023-09-18T12:03:39;28.50;94.50
324;DHT22;149;51.094;17.002;2023-09-18T12:06:07;28.60;93.20
324;DHT22;149;51.094;17.002;2023-09-18T12:08:36;28.60;93.80
324;DHT22;149;51.094;17.002;2023-09-18T12:16:21;28.60;93.10
324;DHT22;149;51.094;17.002;2023-09-18T12:18:49;28.60;92.00
324;DHT22;149;51.094;17.002;2023-09-18T12:21:17;28.80;92.80
324;DHT22;149;51.094;17.002;2023-09-18T12:23:46;28.70;91.70
324;DHT22;149;51.094;17.002;2023-09-18T12:26:16;28.60;92.50
324;DHT22;149;51.094;17.002;2023-09-18T12:28:46;28.50;91.90
324;DHT22;149;51.094;17.002;2023-09-18T12:31:15;28.50;91.20
324;DHT22;149;51.094;17.002;2023-09-18T12:33:44;28.50;92.00
324;DHT22;149;51.094;17.002;2023-09-18T12:39:03;28.50;92.70
324;DHT22;149;51.094;17.002;2023-09-18T12:41:37;28.40;92.20
324;DHT22;149;51.094;17.002;2023-09-18T12:44:05;28.20;92.00
324;DHT22;149;51.094;17.002;2023-09-18T12:46:41;28.10;91.90
324;DHT22;149;51.094;17.002;2023-09-18T12:49:23;28.00;92.20
324;DHT22;149;51.094;17.002;2023-09-18T12:52:00;28.00;91.90
324;DHT22;149;51.094;17.002;2023-09-18T12:54:45;27.90;92.30
324;DHT22;149;51.094;17.002;2023-09-18T12:57:16;27.90;92.70
324;DHT22;149;51.094;17.002;2023-09-18T12:59:44;27.90;91.80
324;DHT22;149;51.094;17.002;2023-09-18T13:12:53;27.80;92.30
324;DHT22;149;51.094;17.002;2023-09-18T13:15:32;27.70;93.30
324;DHT22;149;51.094;17.002;2023-09-18T13:18:09;27.70;93.30
324;DHT22;149;51.094;17.002;2023-09-18T13:20:40;27.80;93.90
324;DHT22;149;51.094;17.002;2023-09-18T13:23:16;27.80;93.40
324;DHT22;149;51.094;17.002;2023-09-18T13:28:30;27.80;93.60
324;DHT22;149;51.094;17.002;2023-09-18T13:31:04;27.90;93.80
324;DHT22;149;51.094;17.002;2023-09-18T13:33:39;27.80;93.50
324;DHT22;149;51.094;17.002;2023-09-18T13:36:10;27.90;93.10
324;DHT22;149;51.094;17.002;2023-09-18T13:38:51;27.90;93.10
324;DHT22;149;51.094;17.002;2023-09-18T13:41:19;28.00;93.60
324;DHT22;149;51.094;17.002;2023-09-18T13:43:49;27.90;93.80
324;DHT22;149;51.094;17.002;2023-09-18T13:46:22;27.90;93.30
324;DHT22;149;51.094;17.002;2023-09-18T13:48:52;27.70;93.10
324;DHT22;149;51.094;17.002;2023-09-18T13:51:29;27.60;93.80
324;DHT22;149;51.094;17.002;2023-09-18T13:54:06;27.50;94.20
324;DHT22;149;51.094;17.002;2023-09-18T13:56:36;27.50;94.00
324;DHT22;149;51.094;17.002;2023-09-18T13:59:05;27.50;93.40
324;DHT22;149;51.094;17.002;2023-09-18T14:04:24;27.40;94.10
324;DHT22;149;51.094;17.002;2023-09-18T14:06:54;27.40;93.90
324;DHT22;149;51.094;17.002;2023-09-18T14:09:21;27.30;94.00
324;DHT22;149;51.094;17.002;2023-09-18T14:11:48;27.20;94.80
324;DHT22;149;51.094;17.002;2023-09-18T14:14:18;27.20;94.70
324;DHT22;149;51.094;17.002;2023-09-18T14:16:46;27.20;94.60
324;DHT22;149;51.094;17.002;2023-09-18T14:19:33;27.30;95.20
324;DHT22;149;51.094;17.002;2023-09-18T14:22:10;27.30;95.10
324;DHT22;149;51.094;17.002;2023-09-18T14:24:36;27.50;95.60
324;DHT22;149;51.094;17.002;2023-09-18T14:32:25;27.70;95.50
324;DHT22;149;51.094;17.002;2023-09-18T14:37:29;28.00;95.00
324;DHT22;149;51.094;17.002;2023-09-18T14:42:25;28.00;94.30
324;DHT22;149;51.094;17.002;2023-09-18T14:47:29;28.00;94.60
324;DHT22;149;51.094;17.002;2023-09-18T14:49:58;28.10;94.30
324;DHT22;149;51.094;17.002;2023-09-18T14:52:30;27.80;94.60
324;DHT22;149;51.094;17.002;2023-09-18T14:54:58;27.70;94.30
324;DHT22;149;51.094;17.002;2023-09-18T14:57:37;27.80;94.30
324;DHT22;149;51.094;17.002;2023-09-18T15:00:09;27.70;94.70
324;DHT22;149;51.094;17.002;2023-09-18T15:02:49;27.60;94.10
324;DHT22;149;51.094;17.002;2023-09-18T15:05:19;27.50;94.60
324;DHT22;149;51.094;17.002;2023-09-18T15:07:45;27.40;93.90
324;DHT22;149;51.094;17.002;2023-09-18T15:10:15;27.40;94.50
324;DHT22;149;51.094;17.002;2023-09-18T15:15:24;27.10;95.30
324;DHT22;149;51.094;17.002;2023-09-18T15:17:53;27.00;95.10
324;DHT22;149;51.094;17.002;2023-09-18T15:20:22;26.90;95.20
324;DHT22;149;51.094;17.002;2023-09-18T15:22:55;26.90;95.20
324;DHT22;149;51.094;17.002;2023-09-18T15:25:24;26.80;95.00
324;DHT22;149;51.094;17.002;2023-09-18T15:27:53;26.80;95.50
324;DHT22;149;51.094;17.002;2023-09-18T15:30:24;26.70;95.40
324;DHT22;149;51.094;17.002;2023-09-18T15:32:54;26.50;96.00
324;DHT22;149;51.094;17.002;2023-09-18T15:35:26;26.50;96.10
324;DHT22;149;51.094;17.002;2023-09-18T15:37:54;26.60;96.00
324;DHT22;149;51.094;17.002;2023-09-18T15:40:22;26.40;96.70
324;DHT22;149;51.094;17.002;2023-09-18T15:48:14;26.30;97.00
324;DHT22;149;51.094;17.002;2023-09-18T15:50:45;26.20;97.00
324;DHT22;149;51.094;17.002;2023-09-18T15:53:14;26.10;97.00
324;DHT22;149;51.094;17.002;2023-09-18T15:56:06;26.10;97.00
324;DHT22;149;51.094;17.002;2023-09-18T16:01:25;26.00;97.50
324;DHT22;149;51.094;17.002;2023-09-18T16:03:53;26.00;97.40
324;DHT22;149;51.094;17.002;2023-09-18T16:06:28;26.10;98.00
324;DHT22;149;51.094;17.002;2023-09-18T16:11:48;25.80;98.40
324;DHT22;149;51.094;17.002;2023-09-18T16:16:52;25.70;98.30
324;DHT22;149;51.094;17.002;2023-09-18T16:19:19;25.70;98.40
324;DHT22;149;51.094;17.002;2023-09-18T16:21:47;25.60;98.80
324;DHT22;149;51.094;17.002;2023-09-18T16:24:26;25.60;98.80
324;DHT22;149;51.094;17.002;2023-09-18T16:26:57;25.60;99.20
324;DHT22;149;51.094;17.002;2023-09-18T16:29:25;25.40;99.60
324;DHT22;149;51.094;17.002;2023-09-18T16:31:52;25.40;99.30
324;DHT22;149;51.094;17.002;2023-09-18T16:42:13;25.00;99.90
324;DHT22;149;51.094;17.002;2023-09-18T17:00:53;24.40;99.90
324;DHT22;149;51.094;17.002;2023-09-18T17:03:33;24.30;99.90
324;DHT22;149;51.094;17.002;2023-09-18T17:06:11;24.30;99.90
324;DHT22;149;51.094;17.002;2023-09-18T17:08:39;24.20;99.90
324;DHT22;149;51.094;17.002;2023-09-18T17:13:45;24.20;99.90
324;DHT22;149;51.094;17.002;2023-09-18T17:16:12;24.20;99.90
324;DHT22;149;51.094;17.002;2023-09-18T17:21:25;24.10;99.90
324;DHT22;149;51.094;17.002;2023-09-18T17:31:57;23.70;99.90
324;DHT22;149;51.094;17.002;2023-09-18T17:34:28;23.70;99.90
324;DHT22;149;51.094;17.002;2023-09-18T17:39:38;23.50;99.90
324;DHT22;149;51.094;17.002;2023-09-18T17:52:57;23.20;99.90
324;DHT22;149;51.094;17.002;2023-09-18T17:58:08;23.10;99.90
324;DHT22;149;51.094;17.002;2023-09-18T18:08:30;23.00;99.90
324;DHT22;149;51.094;17.002;2023-09-18T18:11:10;23.00;99.90
324;DHT22;149;51.094;17.002;2023-09-18T18:13:38;22.90;99.90
324;DHT22;149;51.094;17.002;2023-09-18T18:24:08;22.70;99.90
324;DHT22;149;51.094;17.002;2023-09-18T18:29:11;22.90;99.90
324;DHT22;149;51.094;17.002;2023-09-18T18:31:38;22.90;99.90
324;DHT22;149;51.094;17.002;2023-09-18T18:34:05;22.80;99.90
324;DHT22;149;51.094;17.002;2023-09-18T18:36:32;23.00;99.90
324;DHT22;149;51.094;17.002;2023-09-18T18:39:05;22.80;99.90
324;DHT22;149;51.094;17.002;2023-09-18T18:41:38;22.80;99.90
324;DHT22;149;51.094;17.002;2023-09-18T18:44:09;22.80;99.90
324;DHT22;149;51.094;17.002;2023-09-18T18:49:19;22.80;99.90
324;DHT22;149;51.094;17.002;2023-09-18T18:51:48;22.70;99.90
324;DHT22;149;51.094;17.002;2023-09-18T18:57:00;22.70;99.90
324;DHT22;149;51.094;17.002;2023-09-18T18:59:30;22.60;99.90
324;DHT22;149;51.094;17.002;2023-09-18T19:01:57;22.60;99.90
324;DHT22;149;51.094;17.002;2023-09-18T19:04:26;22.60;99.90
324;DHT22;149;51.094;17.002;2023-09-18T19:06:54;22.60;99.90
324;DHT22;149;51.094;17.002;2023-09-18T19:09:22;22.50;99.90
324;DHT22;149;51.094;17.002;2023-09-18T19:12:06;22.40;99.90
324;DHT22;149;51.094;17.002;2023-09-18T19:14:37;22.40;99.90
324;DHT22;149;51.094;17.002;2023-09-18T19:20:01;22.40;99.90
324;DHT22;149;51.094;17.002;2023-09-18T19:22:31;22.40;99.90
324;DHT22;149;51.094;17.002;2023-09-18T19:25:12;22.40;99.90
324;DHT22;149;51.094;17.002;2023-09-18T19:28:08;22.40;99.90
324;DHT22;149;51.094;17.002;2023-09-18T19:30:47;22.40;99.90
324;DHT22;149;51.094;17.002;2023-09-18T19:33:37;22.40;99.90
324;DHT22;149;51.094;17.002;2023-09-18T19:36:14;22.30;99.90
324;DHT22;149;51.094;17.002;2023-09-18T19:38:44;22.20;99.90
324;DHT22;149;51.094;17.002;2023-09-18T19:44:03;22.20;99.90
324;DHT22;149;51.094;17.002;2023-09-18T19:46:32;22.10;99.90
324;DHT22;149;51.094;17.002;2023-09-18T19:49:07;22.20;99.90
324;DHT22;149;51.094;17.002;2023-09-18T19:51:39;22.20;99.90
324;DHT22;149;51.094;17.002;2023-09-18T19:54:10;22.20;99.90
324;DHT22;149;51.094;17.002;2023-09-18T19:56:39;22.20;99.90
324;DHT22;149;51.094;17.002;2023-09-18T19:59:07;22.30;99.90
324;DHT22;149;51.094;17.002;2023-09-18T20:01:34;22.30;99.90
324;DHT22;149;51.094;17.002;2023-09-18T20:04:05;22.30;99.90
324;DHT22;149;51.094;17.002;2023-09-18T20:06:32;22.20;99.90
324;DHT22;149;51.094;17.002;2023-09-18T20:09:00;22.20;99.90
324;DHT22;149;51.094;17.002;2023-09-18T20:11:55;22.20;99.90
324;DHT22;149;51.094;17.002;2023-09-18T20:14:27;22.10;99.90
324;DHT22;149;51.094;17.002;2023-09-18T20:16:59;22.10;99.90
324;DHT22;149;51.094;17.002;2023-09-18T20:19:27;22.00;99.90
324;DHT22;149;51.094;17.002;2023-09-18T20:24:29;22.10;99.90
324;DHT22;149;51.094;17.002;2023-09-18T20:26:58;22.00;99.90
324;DHT22;149;51.094;17.002;2023-09-18T20:29:25;22.00;99.90
324;DHT22;149;51.094;17.002;2023-09-18T20:31:56;22.10;99.90
324;DHT22;149;51.094;17.002;2023-09-18T20:34:28;21.90;99.90
324;DHT22;149;51.094;17.002;2023-09-18T20:37:12;21.80;99.90
324;DHT22;149;51.094;17.002;2023-09-18T20:39:43;21.80;99.90
324;DHT22;149;51.094;17.002;2023-09-18T20:42:12;21.80;99.90
324;DHT22;149;51.094;17.002;2023-09-18T20:44:42;21.70;99.90
324;DHT22;149;51.094;17.002;2023-09-18T20:49:52;21.80;99.90
324;DHT22;149;51.094;17.002;2023-09-18T20:52:22;21.70;99.90
324;DHT22;149;51.094;17.002;2023-09-18T20:54:51;21.70;99.90
324;DHT22;149;51.094;17.002;2023-09-18T20:59:58;21.80;99.90
324;DHT22;149;51.094;17.002;2023-09-18T21:02:29;21.80;99.90